Time;durP1;ratioP1;P1;durP2;ratioP2;P2;SDS_P1;SDS_P2;PMS_P1;PMS_P2;Temp;Humidity;BMP_temperature;BMP_pressure;BME280_temperature;BME280_humidity;BME280_pressure;Samples;Min_cycle;Max_cycle;Signal;HPM_P1;HPM_P2
2022/03/13 00:00:06;;;;;;;26.33;18.07;;;;;;;-3.64;49.13;95955.59;5026789;28;20336;-64
2022/03/13 00:02:32;;;;;;;29.23;18.13;;;;;;;-3.58;48.98;95956.28;5028633;28;20233;-64
2022/03/13 00:04:58;;;;;;;23.40;16.70;;;;;;;-3.59;49.33;95957.13;5045402;28;20256;-64
2022/03/13 00:07:24;;;;;;;25.93;18.63;;;;;;;-3.73;50.31;95948.97;5028990;28;20268;-64
2022/03/13 00:09:50;;;;;;;28.17;18.63;;;;;;;-3.82;50.71;95949.25;5043061;28;20236;-64
2022/03/13 00:12:20;;;;;;;26.63;18.30;;;;;;;-3.88;50.99;95954.53;5041442;28;20220;-64
2022/03/13 00:14:46;;;;;;;26.97;18.93;;;;;;;-3.80;51.55;95961.16;5044468;28;20255;-64
2022/03/13 00:17:16;;;;;;;29.00;19.73;;;;;;;-3.83;52.09;95950.94;5046588;28;20216;-64
2022/03/13 00:19:42;;;;;;;30.30;19.10;;;;;;;-3.76;51.84;95951.66;5049935;28;20215;-63
2022/03/13 00:22:09;;;;;;;27.57;19.27;;;;;;;-3.77;52.47;95962.78;5048451;28;20217;-64
2022/03/13 00:24:35;;;;;;;30.53;20.40;;;;;;;-3.81;52.84;95948.34;5051111;28;20234;-64
2022/03/13 00:27:01;;;;;;;28.70;19.97;;;;;;;-3.82;52.76;95951.81;5047087;28;20220;-64
2022/03/13 00:29:27;;;;;;;28.93;19.13;;;;;;;-4.09;53.55;95951.69;5062102;28;20232;-64
2022/03/13 00:31:52;;;;;;;22.97;16.10;;;;;;;-4.09;53.58;95949.13;5046193;28;20208;-64
2022/03/13 00:34:18;;;;;;;23.73;16.37;;;;;;;-4.02;53.27;95947.22;5047909;28;20212;-64
2022/03/13 00:36:44;;;;;;;23.67;16.20;;;;;;;-3.95;52.30;95947.91;5050784;28;20267;-64
2022/03/13 00:39:09;;;;;;;24.03;16.27;;;;;;;-3.94;52.32;95952.97;5051907;28;20227;-64
2022/03/13 00:41:36;;;;;;;21.23;15.60;;;;;;;-4.04;52.15;95954.94;5052674;28;20220;-64
2022/03/13 00:44:02;;;;;;;20.07;15.93;;;;;;;-4.12;52.17;95958.59;5045294;28;20270;-64
2022/03/13 00:46:28;;;;;;;25.00;15.43;;;;;;;-4.11;52.76;95945.72;5045779;28;20240;-64
2022/03/13 00:48:53;;;;;;;18.43;14.80;;;;;;;-4.06;51.58;95950.75;5049554;28;20221;-64
2022/03/13 00:51:19;;;;;;;18.97;14.33;;;;;;;-4.00;50.91;95942.88;5045230;28;20231;-64
2022/03/13 00:53:45;;;;;;;21.33;14.57;;;;;;;-4.15;52.05;95944.13;5038696;28;20224;-64
2022/03/13 00:56:10;;;;;;;22.83;16.03;;;;;;;-4.14;53.24;95937.25;5050567;28;20232;-64
2022/03/13 00:58:40;;;;;;;19.17;14.87;;;;;;;-4.21;52.99;95944.28;5050623;28;20200;-64
2022/03/13 01:01:06;;;;;;;22.93;16.40;;;;;;;-4.24;53.08;95934.94;5065249;28;20290;-64
2022/03/13 01:03:35;;;;;;;22.57;16.73;;;;;;;-4.17;53.58;95938.19;5046123;28;20290;-63
2022/03/13 01:06:01;;;;;;;21.17;16.03;;;;;;;-4.09;52.43;95928.56;5043763;28;20224;-64
2022/03/13 01:08:27;;;;;;;22.13;16.00;;;;;;;-4.14;52.48;95929.53;5044743;28;20236;-64
2022/03/13 01:10:54;;;;;;;21.77;15.50;;;;;;;-4.20;51.96;95927.97;5047607;28;20227;-64
2022/03/13 01:13:20;;;;;;;25.07;15.93;;;;;;;-4.25;52.15;95923.00;5045547;28;20208;-64
2022/03/13 01:15:48;;;;;;;22.67;15.97;;;;;;;-4.24;52.54;95913.56;5045411;28;20225;-64
2022/03/13 01:18:14;;;;;;;24.13;15.87;;;;;;;-4.32;52.14;95920.63;5044332;28;20250;-64
2022/03/13 01:20:40;;;;;;;21.73;15.80;;;;;;;-4.29;52.56;95912.84;5042645;28;20256;-64
2022/03/13 01:23:08;;;;;;;22.40;15.80;;;;;;;-4.23;52.27;95907.53;5047935;28;20204;-64
2022/03/13 01:25:34;;;;;;;19.40;15.13;;;;;;;-4.33;52.09;95913.78;5043180;28;20262;-64
2022/03/13 01:28:00;;;;;;;20.30;15.20;;;;;;;-4.42;52.00;95899.47;5060218;28;20248;-64
2022/03/13 01:30:26;;;;;;;20.87;15.73;;;;;;;-4.32;51.90;95900.91;5049278;28;20228;-64
2022/03/13 01:32:53;;;;;;;21.60;15.67;;;;;;;-4.31;51.99;95897.47;5049072;28;20228;-63
2022/03/13 01:35:21;;;;;;;20.20;15.00;;;;;;;-4.44;51.76;95898.66;5058341;28;20229;-65
2022/03/13 01:37:46;;;;;;;17.97;12.30;;;;;;;-4.58;51.39;95893.88;5047627;28;20211;-63
2022/03/13 01:40:14;;;;;;;18.13;12.83;;;;;;;-4.64;51.02;95891.47;5049876;28;20217;-63
2022/03/13 01:42:40;;;;;;;17.57;13.30;;;;;;;-4.69;51.71;95893.31;5042940;28;20224;-64
2022/03/13 01:45:10;;;;;;;16.60;12.57;;;;;;;-4.62;51.21;95889.72;5044550;28;20217;-63
2022/03/13 01:47:36;;;;;;;18.50;12.40;;;;;;;-4.68;51.87;95884.72;5047280;28;20244;-63
2022/03/13 01:50:02;;;;;;;16.27;12.73;;;;;;;-4.44;51.04;95888.38;5045902;28;20290;-63
2022/03/13 01:52:29;;;;;;;17.03;12.17;;;;;;;-4.60;51.89;95898.22;5045734;28;20280;-63
2022/03/13 01:54:58;;;;;;;18.10;13.77;;;;;;;-4.70;51.98;95897.63;5043876;28;20224;-63
2022/03/13 01:57:24;;;;;;;20.27;13.87;;;;;;;-4.75;52.66;95901.19;5063707;28;20252;-63
2022/03/13 01:59:53;;;;;;;21.73;14.83;;;;;;;-4.70;52.86;95901.91;5044794;28;20240;-64
2022/03/13 02:02:20;;;;;;;20.80;14.97;;;;;;;-4.64;52.87;95912.00;5046097;28;20228;-63
2022/03/13 02:04:50;;;;;;;18.73;14.00;;;;;;;-4.77;53.30;95916.59;5048641;28;20193;-63
2022/03/13 02:07:16;;;;;;;20.37;15.17;;;;;;;-4.96;54.40;95913.63;5064065;28;20220;-63
2022/03/13 02:09:41;;;;;;;21.87;16.37;;;;;;;-4.75;54.16;95903.75;5045982;28;20240;-63
2022/03/13 02:12:09;;;;;;;24.33;16.90;;;;;;;-4.74;54.11;95905.41;5041436;28;20224;-63
2022/03/13 02:14:34;;;;;;;21.97;15.47;;;;;;;-4.76;53.80;95900.31;5043563;28;20228;-63
2022/03/13 02:17:00;;;;;;;21.27;15.17;;;;;;;-4.72;54.00;95903.66;5043868;28;20208;-63
2022/03/13 02:19:25;;;;;;;23.30;16.27;;;;;;;-4.62;53.62;95900.00;5044983;28;20231;-64
2022/03/13 02:21:52;;;;;;;26.53;16.40;;;;;;;-4.47;52.65;95901.31;5047867;28;20221;-63
2022/03/13 02:24:23;;;;;;;23.23;16.40;;;;;;;-4.62;53.38;95905.13;5045426;28;20220;-63
2022/03/13 02:27:00;;;;;;;26.07;16.87;;;;;;;-4.81;53.76;95904.75;5041010;28;20228;-63
2022/03/13 02:29:26;;;;;;;21.93;15.97;;;;;;;-4.81;53.64;95902.19;5046347;28;20233;-64
2022/03/13 02:31:52;;;;;;;23.90;16.17;;;;;;;-4.94;53.71;95903.34;5043763;28;20216;-63
2022/03/13 02:34:19;;;;;;;24.17;15.43;;;;;;;-5.00;54.00;95914.56;5061705;28;20243;-63
2022/03/13 02:36:49;;;;;;;24.10;15.10;;;;;;;-4.92;53.30;95917.84;5043733;28;20259;-63
2022/03/13 02:39:14;;;;;;;21.00;13.63;;;;;;;-4.71;53.21;95905.34;5058977;28;20231;-63
2022/03/13 02:41:41;;;;;;;18.77;12.47;;;;;;;-4.72;52.69;95912.19;5047757;28;20867;-63
2022/03/13 02:44:08;;;;;;;21.00;13.97;;;;;;;-4.83;53.30;95910.78;5043553;28;20255;-64
2022/03/13 02:47:06;;;;;;;21.57;13.30;;;;;;;-4.88;53.13;95909.16;5061901;28;20243;-65
2022/03/13 02:49:32;;;;;;;19.37;12.53;;;;;;;-5.03;52.83;95906.97;4983282;28;20261;-65
2022/03/13 02:52:02;;;;;;;15.77;11.63;;;;;;;-5.06;52.50;95908.75;4978896;28;20473;-65
2022/03/13 02:54:28;;;;;;;15.97;11.17;;;;;;;-5.01;52.10;95918.03;4998121;28;20300;-65
2022/03/13 02:56:54;;;;;;;17.77;11.97;;;;;;;-5.02;52.63;95910.41;5003922;28;20701;-65
2022/03/13 02:59:20;;;;;;;15.53;11.50;;;;;;;-5.13;53.38;95910.66;5007356;28;20222;-65
2022/03/13 03:01:47;;;;;;;20.37;12.97;;;;;;;-5.09;53.76;95914.81;5004243;28;20221;-65
2022/03/13 03:04:12;;;;;;;15.07;10.87;;;;;;;-5.04;52.83;95902.72;4986551;28;20229;-64
2022/03/13 03:06:48;;;;;;;19.03;12.33;;;;;;;-4.87;52.71;95903.16;4986503;28;20230;-64
2022/03/13 03:09:16;;;;;;;14.97;11.60;;;;;;;-4.75;51.63;95907.16;4982329;28;20237;-63
2022/03/13 03:11:42;;;;;;;14.80;9.27;;;;;;;-5.02;51.40;95898.41;5001694;28;20246;-63
2022/03/13 03:14:07;;;;;;;14.53;8.63;;;;;;;-5.17;50.36;95904.72;5004941;28;20283;-63
2022/03/13 03:16:33;;;;;;;11.83;7.83;;;;;;;-5.27;50.46;95897.28;5003725;28;20211;-63
2022/03/13 03:18:59;;;;;;;11.63;8.30;;;;;;;-5.13;50.00;95895.25;5000201;28;20238;-63
2022/03/13 03:21:24;;;;;;;12.10;9.23;;;;;;;-5.11;49.99;95891.75;5001588;28;20594;-63
2022/03/13 03:23:50;;;;;;;13.00;7.90;;;;;;;-5.20;50.87;95889.41;5000000;28;20238;-64
2022/03/13 03:26:15;;;;;;;10.80;8.30;;;;;;;-5.17;50.53;95886.78;5013149;28;20312;-63
2022/03/13 03:28:42;;;;;;;10.83;7.80;;;;;;;-5.10;49.84;95895.19;5028013;28;20213;-63
2022/03/13 03:31:08;;;;;;;11.30;8.10;;;;;;;-5.13;49.35;95890.13;5029137;28;20225;-63
2022/03/13 03:33:33;;;;;;;8.63;6.67;;;;;;;-5.23;49.11;95886.09;5027945;28;20233;-65
2022/03/13 03:35:59;;;;;;;9.90;7.17;;;;;;;-5.16;48.80;95882.50;5026408;28;20233;-63
2022/03/13 03:38:24;;;;;;;12.27;8.63;;;;;;;-5.24;49.35;95881.81;5041623;28;20252;-63
2022/03/13 03:40:51;;;;;;;10.90;8.40;;;;;;;-5.28;49.87;95887.91;5022273;28;20287;-63
2022/03/13 03:43:16;;;;;;;12.80;9.43;;;;;;;-5.35;49.66;95888.03;5040309;28;20205;-63
2022/03/13 03:45:42;;;;;;;14.80;10.30;;;;;;;-5.36;49.57;95883.78;5027551;28;20221;-64
2022/03/13 03:48:07;;;;;;;13.63;9.63;;;;;;;-5.42;50.85;95885.66;5028026;28;20249;-63
2022/03/13 03:50:33;;;;;;;12.33;9.60;;;;;;;-5.37;50.62;95882.13;5030826;28;20248;-63
2022/03/13 03:52:58;;;;;;;13.53;10.20;;;;;;;-5.33;50.82;95899.09;5020336;28;20205;-63
2022/03/13 03:55:26;;;;;;;13.87;10.17;;;;;;;-5.32;51.32;95884.56;5027580;28;20512;-63
2022/03/13 03:57:52;;;;;;;14.63;9.63;;;;;;;-5.25;51.85;95890.41;5026966;28;20227;-64
2022/03/13 04:00:18;;;;;;;13.10;9.30;;;;;;;-5.11;50.97;95889.19;5027278;28;20225;-63
2022/03/13 04:02:44;;;;;;;13.20;9.70;;;;;;;-5.29;51.85;95881.09;5030324;28;20229;-63
2022/03/13 04:05:11;;;;;;;14.13;9.83;;;;;;;-5.23;52.02;95883.53;5025654;28;20232;-63
2022/03/13 04:07:37;;;;;;;13.03;10.10;;;;;;;-5.23;51.83;95871.53;5048225;28;20213;-63
2022/03/13 04:10:05;;;;;;;13.87;9.70;;;;;;;-5.04;51.73;95871.94;5048842;28;20232;-63
2022/03/13 04:12:31;;;;;;;12.00;9.10;;;;;;;-5.01;51.61;95874.44;5044714;28;20357;-63
2022/03/13 04:14:56;;;;;;;13.90;10.17;;;;;;;-5.00;51.85;95882.97;5045806;28;20296;-63
2022/03/13 04:17:22;;;;;;;16.23;11.13;;;;;;;-5.00;52.35;95880.41;5047962;28;20231;-63
2022/03/13 04:19:47;;;;;;;17.53;12.67;;;;;;;-5.04;53.39;95865.97;5047227;28;20208;-63
2022/03/13 04:22:15;;;;;;;22.63;14.87;;;;;;;-5.14;54.42;95880.72;5046940;28;20215;-63
2022/03/13 04:24:41;;;;;;;22.77;14.63;;;;;;;-5.08;54.35;95870.31;5051780;28;20248;-63
2022/03/13 04:27:07;;;;;;;21.53;14.80;;;;;;;-5.20;54.49;95866.34;5051213;28;20276;-63
2022/03/13 04:29:34;;;;;;;23.97;16.50;;;;;;;-5.22;55.16;95872.38;5050176;28;20493;-63
2022/03/13 04:32:05;;;;;;;25.77;16.70;;;;;;;-5.41;56.45;95867.69;5043112;28;20208;-63
2022/03/13 04:34:32;;;;;;;21.17;14.70;;;;;;;-5.52;56.42;95869.66;5047028;28;20362;-63
2022/03/13 04:37:00;;;;;;;22.17;16.00;;;;;;;-5.06;55.84;95865.16;5044584;28;20228;-64
2022/03/13 04:39:27;;;;;;;25.13;16.63;;;;;;;-4.91;54.87;95867.38;5049329;28;20358;-63
2022/03/13 04:41:52;;;;;;;23.77;16.27;;;;;;;-4.99;55.15;95871.84;5050915;28;20224;-63
2022/03/13 04:44:19;;;;;;;21.97;16.93;;;;;;;-4.97;55.30;95867.50;5048059;28;20210;-63
2022/03/13 04:46:44;;;;;;;24.83;16.53;;;;;;;-4.86;55.58;95880.94;5046813;28;20219;-63
2022/03/13 04:49:10;;;;;;;27.17;17.73;;;;;;;-4.76;55.55;95873.81;5048637;28;20220;-63
2022/03/13 04:51:39;;;;;;;24.53;17.23;;;;;;;-4.77;55.25;95870.41;5045995;28;20228;-63
2022/03/13 04:54:08;;;;;;;25.60;17.43;;;;;;;-4.55;55.50;95868.13;5046566;28;20315;-63
2022/03/13 04:56:34;;;;;;;22.97;16.97;;;;;;;-4.98;56.17;95860.69;5046074;28;20235;-62
2022/03/13 04:59:00;;;;;;;26.63;17.80;;;;;;;-4.70;55.26;95868.56;5067665;28;20209;-63
2022/03/13 05:01:26;;;;;;;23.00;17.53;;;;;;;-4.60;55.34;95869.97;5051525;28;20300;-63
2022/03/13 05:03:51;;;;;;;23.60;17.23;;;;;;;-4.39;54.05;95865.19;5049902;28;20328;-62
2022/03/13 05:06:17;;;;;;;21.10;15.73;;;;;;;-4.63;55.28;95871.78;5048073;28;20239;-63
2022/03/13 05:08:44;;;;;;;23.03;16.27;;;;;;;-4.48;54.29;95872.25;5046382;28;20239;-65
2022/03/13 05:11:10;;;;;;;24.87;17.53;;;;;;;-4.57;54.26;95877.63;5045777;28;20228;-63
2022/03/13 05:13:35;;;;;;;22.53;16.13;;;;;;;-4.62;54.58;95879.47;5046723;28;20212;-63
2022/03/13 05:16:01;;;;;;;21.70;15.23;;;;;;;-4.65;54.69;95874.41;5046173;28;20260;-64
2022/03/13 05:18:27;;;;;;;19.40;13.60;;;;;;;-4.49;53.65;95885.09;5047782;28;20220;-63
2022/03/13 05:20:52;;;;;;;22.13;14.73;;;;;;;-4.49;52.65;95880.84;5034860;28;20525;-63
2022/03/13 05:23:19;;;;;;;20.30;13.97;;;;;;;-4.56;52.73;95883.59;5045413;28;20217;-64
2022/03/13 05:25:44;;;;;;;19.97;14.43;;;;;;;-4.58;52.75;95880.22;5045358;28;20196;-63
2022/03/13 05:28:10;;;;;;;23.53;14.37;;;;;;;-4.51;52.66;95877.47;5045011;28;20235;-63
2022/03/13 05:30:38;;;;;;;21.37;14.53;;;;;;;-4.43;52.39;95883.22;5047874;28;20246;-63
2022/03/13 05:33:04;;;;;;;22.93;14.23;;;;;;;-4.46;52.22;95883.31;5047175;28;20228;-63
2022/03/13 05:35:30;;;;;;;20.73;14.20;;;;;;;-4.32;51.69;95893.22;5050802;28;20236;-63
2022/03/13 05:37:56;;;;;;;21.17;13.87;;;;;;;-4.28;51.81;95891.41;5047724;28;20213;-63
2022/03/13 05:40:22;;;;;;;21.30;14.20;;;;;;;-4.13;51.55;95888.41;5046412;28;20213;-63
2022/03/13 05:42:50;;;;;;;20.93;14.30;;;;;;;-3.98;51.05;95892.31;5043317;28;20224;-63
2022/03/13 05:45:19;;;;;;;21.93;14.77;;;;;;;-4.04;50.76;95895.84;5045953;28;20321;-64
2022/03/13 05:47:47;;;;;;;21.03;14.47;;;;;;;-4.02;51.14;95901.81;5060985;28;20272;-63
2022/03/13 05:50:13;;;;;;;19.47;12.43;;;;;;;-3.86;50.33;95897.09;5049163;28;20217;-64
2022/03/13 05:52:38;;;;;;;17.37;12.53;;;;;;;-3.93;49.93;95887.03;5051104;28;20205;-64
2022/03/13 05:55:05;;;;;;;18.40;12.47;;;;;;;-3.86;50.08;95902.22;5063870;28;20236;-63
2022/03/13 05:57:31;;;;;;;18.30;13.13;;;;;;;-3.81;50.16;95890.09;5044859;28;20220;-63
2022/03/13 05:59:56;;;;;;;21.80;13.07;;;;;;;-3.76;50.63;95900.25;5045801;28;20217;-63
2022/03/13 06:02:22;;;;;;;18.97;13.00;;;;;;;-3.57;49.89;95903.13;5045355;28;20343;-63
2022/03/13 06:04:48;;;;;;;18.50;13.23;;;;;;;-3.61;49.94;95898.94;5041297;28;20526;-63
2022/03/13 06:07:14;;;;;;;18.50;12.67;;;;;;;-3.57;49.93;95898.81;5043228;28;20204;-64
2022/03/13 06:09:39;;;;;;;17.33;12.87;;;;;;;-3.68;50.46;95895.72;5051231;28;20232;-63
2022/03/13 06:12:05;;;;;;;20.20;13.47;;;;;;;-3.47;49.96;95908.84;5045428;28;20696;-65
2022/03/13 06:14:31;;;;;;;20.90;13.63;;;;;;;-3.35;49.34;95905.88;5043994;28;20225;-62
2022/03/13 06:16:56;;;;;;;17.50;11.80;;;;;;;-3.26;48.29;95913.34;5045244;28;20227;-65
2022/03/13 06:19:22;;;;;;;17.63;12.43;;;;;;;-3.34;48.42;95905.03;5040693;28;20271;-65
2022/03/13 06:21:49;;;;;;;17.20;11.63;;;;;;;-3.29;48.79;95905.69;5045493;28;20224;-63
2022/03/13 06:24:17;;;;;;;18.57;12.33;;;;;;;-3.44;48.83;95907.00;5046889;28;20209;-62
2022/03/13 06:26:42;;;;;;;22.30;12.60;;;;;;;-3.48;49.15;95907.16;5048159;28;20495;-63
2022/03/13 06:29:08;;;;;;;18.53;12.50;;;;;;;-3.41;48.26;95908.66;5049506;28;20220;-63
2022/03/13 06:31:34;;;;;;;16.30;12.20;;;;;;;-3.37;48.44;95916.25;5048814;28;20265;-64
2022/03/13 06:33:59;;;;;;;18.23;13.20;;;;;;;-3.22;48.63;95919.22;5043725;28;20243;-64
2022/03/13 06:36:25;;;;;;;18.03;12.27;;;;;;;-3.14;48.78;95907.81;5044371;28;20228;-64
2022/03/13 06:38:50;;;;;;;17.63;13.33;;;;;;;-3.05;47.67;95913.56;5044693;28;20331;-64
2022/03/13 06:41:18;;;;;;;17.87;13.13;;;;;;;-3.07;47.43;95915.31;5046614;28;20231;-64
2022/03/13 06:43:44;;;;;;;17.67;13.67;;;;;;;-3.08;47.51;95916.22;5048664;28;20512;-64
2022/03/13 06:46:09;;;;;;;19.30;12.53;;;;;;;-3.12;47.61;95918.91;5044836;28;20220;-65
2022/03/13 06:48:35;;;;;;;16.80;12.30;;;;;;;-3.33;48.36;95922.13;5045440;28;20439;-64
2022/03/13 06:51:01;;;;;;;18.63;13.60;;;;;;;-3.21;48.65;95910.63;5044080;28;20622;-64
2022/03/13 06:53:26;;;;;;;21.07;13.93;;;;;;;-3.35;48.99;95917.00;5044571;28;20228;-64
2022/03/13 06:55:52;;;;;;;18.87;12.63;;;;;;;-3.19;48.65;95914.81;5042442;28;20221;-64
2022/03/13 06:58:18;;;;;;;19.00;14.23;;;;;;;-3.02;48.16;95910.88;5042281;28;20204;-64
2022/03/13 07:00:45;;;;;;;17.67;13.47;;;;;;;-3.09;48.44;95909.41;5045710;28;20221;-64
2022/03/13 07:03:11;;;;;;;18.90;14.17;;;;;;;-3.01;48.09;95902.28;5048983;28;20217;-63
2022/03/13 07:05:36;;;;;;;22.57;13.60;;;;;;;-2.73;47.37;95902.22;5044862;28;20350;-64
2022/03/13 07:08:02;;;;;;;18.63;13.93;;;;;;;-2.60;47.12;95894.97;5044016;28;20236;-65
2022/03/13 07:10:28;;;;;;;21.20;14.37;;;;;;;-2.48;46.55;95891.97;5026956;28;20587;-64
2022/03/13 07:12:55;;;;;;;20.73;14.87;;;;;;;-2.47;46.31;95896.22;5025769;28;20251;-64
2022/03/13 07:15:22;;;;;;;22.47;14.17;;;;;;;-2.50;46.61;95899.75;5043241;28;20231;-64
2022/03/13 07:17:47;;;;;;;21.20;14.40;;;;;;;-2.53;46.32;95893.88;5048172;28;20264;-64
2022/03/13 07:20:14;;;;;;;20.70;14.63;;;;;;;-2.44;46.88;95890.97;5048235;28;20252;-65
2022/03/13 07:22:42;;;;;;;17.77;14.13;;;;;;;-2.28;46.67;95888.72;5045218;28;20201;-63
2022/03/13 07:25:09;;;;;;;19.53;14.20;;;;;;;-2.33;46.43;95888.88;5043953;28;20270;-64
2022/03/13 07:27:35;;;;;;;19.83;14.53;;;;;;;-2.38;46.37;95895.91;5042749;28;20222;-64
2022/03/13 07:30:00;;;;;;;23.90;14.40;;;;;;;-2.12;46.42;95901.91;5057902;28;20227;-64
2022/03/13 07:32:26;;;;;;;19.03;14.47;;;;;;;-1.90;45.66;95899.41;5043863;28;20224;-65
2022/03/13 07:34:52;;;;;;;21.53;13.63;;;;;;;-2.01;45.47;95892.91;5044537;28;20223;-65
2022/03/13 07:37:18;;;;;;;22.77;14.10;;;;;;;-1.99;45.10;95895.44;5043502;28;20221;-64
2022/03/13 07:39:47;;;;;;;17.93;13.63;;;;;;;-2.01;45.11;95897.22;5044123;28;20225;-64
2022/03/13 07:42:13;;;;;;;18.60;13.77;;;;;;;-1.80;45.23;95904.19;5045770;28;20232;-65
2022/03/13 07:44:39;;;;;;;18.60;13.63;;;;;;;-1.79;44.85;95908.47;5042990;28;20228;-63
2022/03/13 07:47:04;;;;;;;21.00;13.37;;;;;;;-1.93;44.39;95892.63;5044547;28;20224;-63
2022/03/13 07:49:30;;;;;;;21.60;13.53;;;;;;;-1.78;44.41;95888.66;5046907;28;20281;-63
2022/03/13 07:51:56;;;;;;;17.37;13.83;;;;;;;-1.53;44.08;95901.50;5044030;28;20225;-63
2022/03/13 07:54:21;;;;;;;21.33;13.57;;;;;;;-1.50;43.59;95897.97;5041979;28;20220;-63
2022/03/13 07:56:47;;;;;;;16.60;13.37;;;;;;;-1.45;43.79;95896.88;5041894;28;20233;-64
2022/03/13 07:59:12;;;;;;;23.50;13.87;;;;;;;-1.48;43.15;95889.25;5043041;28;20228;-64
2022/03/13 08:01:38;;;;;;;18.77;13.67;;;;;;;-1.53;43.60;95886.00;5043479;28;20213;-64
2022/03/13 08:04:07;;;;;;;18.17;13.67;;;;;;;-1.52;43.83;95885.13;5042386;28;20233;-64
2022/03/13 08:06:34;;;;;;;21.80;14.10;;;;;;;-1.38;43.57;95882.03;5042564;28;20231;-64
2022/03/13 08:09:00;;;;;;;21.30;14.33;;;;;;;-1.27;43.49;95873.88;5045226;28;20309;-65
2022/03/13 08:11:26;;;;;;;17.90;13.03;;;;;;;-1.21;43.19;95868.47;5050834;28;20236;-65
2022/03/13 08:13:52;;;;;;;18.87;13.33;;;;;;;-1.15;43.24;95865.63;5049350;28;20209;-67
2022/03/13 08:16:18;;;;;;;19.60;12.73;;;;;;;-1.19;43.48;95858.94;5047087;28;20252;-62
2022/03/13 08:18:44;;;;;;;18.23;13.53;;;;;;;-1.04;43.14;95855.75;5047894;28;20249;-67
2022/03/13 08:21:10;;;;;;;17.47;13.63;;;;;;;-0.93;42.65;95855.31;5048636;28;20224;-67
2022/03/13 08:23:35;;;;;;;21.67;15.07;;;;;;;-0.63;42.21;95847.22;5049626;28;20220;-67
2022/03/13 08:26:00;;;;;;;18.87;13.83;;;;;;;-0.55;42.42;95848.56;5046630;28;20208;-66
2022/03/13 08:28:26;;;;;;;20.67;13.37;;;;;;;-0.38;42.00;95854.78;5046165;28;20213;-66
2022/03/13 08:30:51;;;;;;;18.30;14.20;;;;;;;-0.45;41.23;95849.03;5046448;28;20228;-64
2022/03/13 08:33:17;;;;;;;21.83;14.23;;;;;;;-0.42;41.45;95854.06;5048149;28;20236;-64
2022/03/13 08:35:43;;;;;;;20.50;14.33;;;;;;;-0.36;40.79;95861.56;5044351;28;20273;-64
2022/03/13 08:38:08;;;;;;;17.87;14.87;;;;;;;-0.30;40.97;95852.69;5045775;28;20220;-64
2022/03/13 08:40:34;;;;;;;19.60;13.73;;;;;;;-0.34;40.58;95854.59;5047621;28;20204;-64
2022/03/13 08:42:59;;;;;;;25.47;15.17;;;;;;;-0.24;41.41;95857.63;5047182;28;20307;-64
2022/03/13 08:45:25;;;;;;;18.70;14.43;;;;;;;-0.20;40.66;95848.81;5048850;28;20229;-63
2022/03/13 08:47:50;;;;;;;17.80;13.53;;;;;;;-0.24;41.07;95857.63;5045833;28;20231;-65
2022/03/13 08:50:16;;;;;;;19.50;14.63;;;;;;;-0.22;40.85;95855.78;5060743;28;20224;-64
2022/03/13 08:52:43;;;;;;;20.90;14.10;;;;;;;-0.14;40.84;95842.53;5044338;28;20216;-65
2022/03/13 08:55:13;;;;;;;21.43;13.80;;;;;;;0.09;40.46;95851.91;5044173;28;20248;-64
2022/03/13 08:57:42;;;;;;;21.83;14.67;;;;;;;0.40;39.31;95844.44;5041710;28;20600;-65
2022/03/13 09:00:10;;;;;;;19.83;14.17;;;;;;;0.73;39.00;95846.38;5045933;28;20232;-65
2022/03/13 09:02:36;;;;;;;18.53;13.67;;;;;;;0.85;38.61;95840.59;5049779;28;20288;-65
2022/03/13 09:05:02;;;;;;;18.37;14.23;;;;;;;0.59;38.85;95841.00;5049423;28;20207;-65
2022/03/13 09:07:27;;;;;;;18.13;13.33;;;;;;;0.69;38.87;95818.09;5048943;28;20209;-64
2022/03/13 09:09:53;;;;;;;16.67;13.00;;;;;;;0.76;38.62;95828.09;5045012;28;20237;-64
2022/03/13 09:12:19;;;;;;;21.30;14.93;;;;;;;0.99;38.17;95824.44;5043391;28;20233;-65
2022/03/13 09:14:45;;;;;;;19.73;14.37;;;;;;;1.13;37.67;95831.53;5044707;28;20232;-65
2022/03/13 09:17:10;;;;;;;19.20;14.60;;;;;;;1.14;37.60;95829.78;5043924;28;20220;-64
2022/03/13 09:19:36;;;;;;;18.27;14.10;;;;;;;1.54;36.75;95832.06;5050606;28;20207;-64
2022/03/13 09:22:02;;;;;;;17.17;13.57;;;;;;;1.90;36.96;95818.16;5051087;28;20235;-63
2022/03/13 09:24:27;;;;;;;18.73;14.57;;;;;;;2.10;35.66;95816.25;5046634;28;20275;-63
2022/03/13 09:26:53;;;;;;;22.40;14.43;;;;;;;2.12;35.82;95809.25;5042973;28;20228;-61
2022/03/13 09:29:18;;;;;;;19.70;15.57;;;;;;;2.00;38.32;95808.13;5044892;28;20216;-63
2022/03/13 09:31:44;;;;;;;24.83;15.53;;;;;;;1.74;36.15;95810.31;5043791;28;20205;-64
2022/03/13 09:34:10;;;;;;;25.07;16.47;;;;;;;1.88;36.17;95806.19;5049555;28;20239;-64
2022/03/13 09:36:37;;;;;;;22.97;16.60;;;;;;;1.93;35.64;95805.03;5050357;28;20220;-63
2022/03/13 09:39:07;;;;;;;22.57;16.40;;;;;;;2.08;36.76;95805.97;5067704;28;20274;-63
2022/03/13 09:41:33;;;;;;;20.73;15.20;;;;;;;2.23;35.87;95800.91;5044321;28;20235;-64
2022/03/13 09:43:58;;;;;;;23.30;17.00;;;;;;;2.43;36.35;95800.63;5047056;28;20200;-64
2022/03/13 09:46:24;;;;;;;22.23;17.43;;;;;;;2.82;35.25;95804.56;5049329;28;20201;-64
2022/03/13 09:48:52;;;;;;;21.73;17.37;;;;;;;3.32;34.82;95798.28;5045144;28;20270;-62
2022/03/13 09:51:17;;;;;;;19.80;17.47;;;;;;;3.58;34.05;95796.75;5057411;28;20237;-64
2022/03/13 09:53:43;;;;;;;21.60;18.23;;;;;;;3.70;33.52;95783.03;5049480;28;20228;-65
2022/03/13 09:56:08;;;;;;;28.77;18.57;;;;;;;3.85;33.32;95786.50;5048836;28;20224;-65
2022/03/13 09:58:34;;;;;;;22.67;17.37;;;;;;;4.07;33.35;95786.03;5050518;28;20212;-65
2022/03/13 10:01:00;;;;;;;24.77;18.57;;;;;;;4.27;32.26;95786.56;5063122;28;20256;-64
2022/03/13 10:03:26;;;;;;;24.93;18.80;;;;;;;4.45;31.95;95782.00;5044166;28;20229;-65
2022/03/13 10:05:54;;;;;;;24.10;17.23;;;;;;;4.74;31.33;95781.00;5062195;28;20290;-65
2022/03/13 10:08:26;;;;;;;24.33;18.17;;;;;;;4.69;31.01;95777.03;5048631;28;20252;-65
2022/03/13 10:10:53;;;;;;;22.07;17.40;;;;;;;5.03;30.72;95775.69;5045433;28;20244;-65
2022/03/13 10:13:43;;;;;;;23.90;18.83;;;;;;;5.20;29.98;95778.03;5045534;28;20193;-66
2022/03/13 10:16:15;;;;;;;24.63;18.67;;;;;;;5.15;29.79;95769.66;5060346;28;20228;-66
2022/03/13 10:18:41;;;;;;;22.83;18.20;;;;;;;4.94;30.30;95771.06;5058275;28;20224;-66
2022/03/13 10:21:09;;;;;;;24.67;18.70;;;;;;;4.86;29.54;95766.34;5042743;28;20228;-65
2022/03/13 10:23:35;;;;;;;23.30;19.47;;;;;;;4.61;30.04;95761.88;5044725;28;20224;-65
2022/03/13 10:26:01;;;;;;;23.90;18.07;;;;;;;4.25;31.42;95765.84;5042249;28;20200;-65
2022/03/13 10:28:56;;;;;;;31.43;19.00;;;;;;;4.73;30.37;95774.13;5049555;28;20287;-64
2022/03/13 10:31:22;;;;;;;25.90;18.43;;;;;;;4.92;30.49;95767.72;5047224;28;20236;-66
2022/03/13 10:33:47;;;;;;;22.60;17.87;;;;;;;5.08;30.25;95763.22;5048497;28;20225;-66
2022/03/13 10:36:21;;;;;;;24.60;18.07;;;;;;;5.18;29.00;95764.25;5047649;28;20233;-66
2022/03/13 10:38:49;;;;;;;23.90;18.30;;;;;;;5.35;29.11;95749.28;5046725;28;20235;-66
2022/03/13 10:41:14;;;;;;;28.27;18.67;;;;;;;5.53;28.76;95742.81;5045080;28;20228;-64
2022/03/13 10:43:58;;;;;;;27.20;17.90;;;;;;;5.67;28.99;95739.31;5061724;28;20201;-65
2022/03/13 10:46:36;;;;;;;30.17;19.13;;;;;;;5.65;29.20;95746.41;5044537;28;20216;-64
2022/03/13 10:49:04;;;;;;;24.33;19.20;;;;;;;5.62;28.96;95744.00;5049396;28;20310;-66
2022/03/13 10:51:48;;;;;;;26.17;18.00;;;;;;;5.54;28.59;95739.28;5064439;28;20217;-65
2022/03/13 10:54:28;;;;;;;29.83;19.77;;;;;;;5.42;28.38;95740.09;5035747;28;20232;-65
2022/03/13 10:57:11;;;;;;;21.60;15.63;;;;;;;5.21;27.37;95730.19;5054415;28;20315;-65
2022/03/13 10:59:41;;;;;;;21.77;18.33;;;;;;;5.34;29.17;95738.00;5041030;28;20225;-65
2022/03/13 11:02:10;;;;;;;22.53;18.50;;;;;;;5.09;30.06;95736.19;5043921;28;20239;-64
2022/03/13 11:04:36;;;;;;;22.83;17.17;;;;;;;5.16;30.19;95737.47;5049096;28;20262;-65
2022/03/13 11:07:01;;;;;;;24.50;19.13;;;;;;;5.33;29.27;95731.13;5050340;28;20224;-65
2022/03/13 11:09:27;;;;;;;19.27;14.33;;;;;;;5.17;27.71;95733.09;5048102;28;20243;-66
2022/03/13 11:11:53;;;;;;;17.67;13.17;;;;;;;5.04;26.50;95726.06;5047176;28;20224;-65
2022/03/13 11:14:20;;;;;;;17.67;13.27;;;;;;;5.05;26.02;95724.28;5048842;28;20223;-66
2022/03/13 11:16:46;;;;;;;17.57;12.60;;;;;;;4.94;26.05;95724.97;5062022;28;20201;-66